createdAt,value
2018-02-13T00:01:10.737Z,6.60
2018-02-13T00:03:38.196Z,5.67
2018-02-13T00:06:05.638Z,9.40
2018-02-13T00:08:33.104Z,9.90
2018-02-13T00:11:00.563Z,7.60
2018-02-13T00:13:28.018Z,5.10
2018-02-13T00:15:55.509Z,8.07
2018-02-13T00:18:22.978Z,8.63
2018-02-13T00:20:51.197Z,5.63
2018-02-13T00:23:18.661Z,4.70
2018-02-13T00:25:46.112Z,6.70
2018-02-13T00:28:13.577Z,4.30
2018-02-13T00:30:41.026Z,9.93
2018-02-13T00:33:08.481Z,7.60
2018-02-13T00:35:35.940Z,6.30
2018-02-13T00:38:03.396Z,6.40
2018-02-13T00:40:30.850Z,5.70
2018-02-13T00:42:58.310Z,8.03
2018-02-13T00:45:25.771Z,4.50
2018-02-13T00:47:53.221Z,5.63
2018-02-13T00:50:20.677Z,8.33
2018-02-13T00:52:48.125Z,5.80
2018-02-13T00:55:15.576Z,7.40
2018-02-13T00:57:43.021Z,4.90
2018-02-13T01:00:10.482Z,5.93
2018-02-13T01:02:37.924Z,5.40
2018-02-13T01:05:06.151Z,5.30
2018-02-13T01:07:33.588Z,4.73
2018-02-13T01:10:01.049Z,7.13
2018-02-13T01:12:28.498Z,8.43
2018-02-13T01:14:55.958Z,6.57
2018-02-13T01:17:23.405Z,4.47
2018-02-13T01:19:50.857Z,5.60
2018-02-13T01:22:18.312Z,5.37
2018-02-13T01:24:45.804Z,4.90
2018-02-13T01:27:13.258Z,4.70
2018-02-13T01:29:40.700Z,4.43
2018-02-13T01:32:08.172Z,4.73
2018-02-13T01:34:35.614Z,4.83
2018-02-13T01:37:03.090Z,5.13
2018-02-13T01:39:30.541Z,5.43
2018-02-13T01:41:58.001Z,8.73
2018-02-13T01:44:25.441Z,4.43
2018-02-13T01:46:52.897Z,4.10
2018-02-13T01:49:20.348Z,4.20
2018-02-13T01:51:47.805Z,4.80
2018-02-13T01:54:16.066Z,6.47
2018-02-13T01:56:43.520Z,4.20
2018-02-13T01:59:10.972Z,5.73
2018-02-13T02:01:38.435Z,5.83
2018-02-13T02:04:05.885Z,8.07
2018-02-13T02:06:34.101Z,7.17
2018-02-13T02:09:01.550Z,5.77
2018-02-13T02:11:29.009Z,5.13
2018-02-13T02:13:56.455Z,6.27
2018-02-13T02:16:23.906Z,4.57
2018-02-13T02:18:51.352Z,6.80
2018-02-13T02:21:18.806Z,4.20
2018-02-13T02:23:46.245Z,5.07
2018-02-13T02:26:14.465Z,9.10
2018-02-13T02:28:41.909Z,4.83
2018-02-13T02:31:09.392Z,5.17
2018-02-13T02:33:36.844Z,4.43
2018-02-13T02:36:05.065Z,4.63
2018-02-13T02:38:33.286Z,4.23
2018-02-13T02:41:00.724Z,9.47
2018-02-13T02:43:28.185Z,5.73
2018-02-13T02:45:55.624Z,5.40
2018-02-13T02:48:23.082Z,3.33
2018-02-13T02:50:50.537Z,4.60
2018-02-13T02:53:17.991Z,4.50
2018-02-13T02:55:45.433Z,4.00
2018-02-13T02:58:13.659Z,5.50
2018-02-13T03:00:41.119Z,10.43
2018-02-13T03:03:09.329Z,5.77
2018-02-13T03:05:37.545Z,4.50
2018-02-13T03:08:05.012Z,5.27
2018-02-13T03:10:32.466Z,4.70
2018-02-13T03:12:59.914Z,7.10
2018-02-13T03:15:27.357Z,6.37
2018-02-13T03:17:54.813Z,5.77
2018-02-13T03:20:22.262Z,6.10
2018-02-13T03:22:49.717Z,5.43
2018-02-13T03:25:17.930Z,6.03
2018-02-13T03:27:45.430Z,5.63
2018-02-13T03:30:12.877Z,5.23
2018-02-13T03:32:40.324Z,4.00
2018-02-13T03:35:07.773Z,5.90
2018-02-13T03:37:35.221Z,7.17
2018-02-13T03:40:02.677Z,4.67
2018-02-13T03:42:30.130Z,5.90
2018-02-13T03:44:57.582Z,5.07
2018-02-13T03:47:25.029Z,4.47
2018-02-13T03:49:52.483Z,4.63
2018-02-13T03:52:19.933Z,4.67
2018-02-13T03:54:47.398Z,4.40
2018-02-13T03:57:15.249Z,5.40
2018-02-13T03:59:42.705Z,9.00
2018-02-13T04:02:10.152Z,6.10
2018-02-13T04:04:37.605Z,3.93
2018-02-13T04:07:05.061Z,4.80
2018-02-13T04:09:33.281Z,5.23
2018-02-13T04:12:00.721Z,4.67
2018-02-13T04:14:28.178Z,6.23
2018-02-13T04:16:55.634Z,6.43
2018-02-13T04:19:23.093Z,6.40
2018-02-13T04:21:50.545Z,5.20
2018-02-13T04:24:17.998Z,4.80
2018-02-13T04:26:45.466Z,7.17
2018-02-13T04:29:12.920Z,4.57
2018-02-13T04:31:40.377Z,6.70
2018-02-13T04:34:07.844Z,7.17
2018-02-13T04:36:35.293Z,5.40
2018-02-13T04:39:02.748Z,5.40
2018-02-13T04:41:31.037Z,5.70
2018-02-13T04:43:58.495Z,5.70
2018-02-13T04:46:25.951Z,4.00
2018-02-13T04:48:53.397Z,4.10
2018-02-13T04:51:20.852Z,4.77
2018-02-13T04:53:48.304Z,6.87
2018-02-13T04:56:15.760Z,4.60
2018-02-13T04:58:43.218Z,5.83
2018-02-13T05:01:10.673Z,4.93
2018-02-13T05:03:38.129Z,5.13
2018-02-13T05:06:05.601Z,4.60
2018-02-13T05:08:33.046Z,4.73
2018-02-13T05:11:00.504Z,5.70
2018-02-13T05:13:27.962Z,6.43
2018-02-13T05:15:55.429Z,5.20
2018-02-13T05:18:23.005Z,7.03
2018-02-13T05:20:50.465Z,3.97
2018-02-13T05:23:17.921Z,5.43
2018-02-13T05:25:45.377Z,6.60
2018-02-13T05:28:12.834Z,6.73
2018-02-13T05:30:40.306Z,7.80
2018-02-13T05:33:08.524Z,9.83
2018-02-13T05:35:36.010Z,5.00
2018-02-13T05:38:03.461Z,5.03
2018-02-13T05:40:31.686Z,5.37
2018-02-13T05:42:59.144Z,4.07
2018-02-13T05:45:27.374Z,5.37
2018-02-13T05:47:54.828Z,9.83
2018-02-13T05:50:22.295Z,5.80
2018-02-13T05:52:49.752Z,5.77
2018-02-13T05:55:17.205Z,5.40
2018-02-13T05:57:44.672Z,4.53
2018-02-13T06:00:12.120Z,4.50
2018-02-13T06:02:39.588Z,7.17
2018-02-13T06:05:07.047Z,4.77
2018-02-13T06:07:34.505Z,8.33
2018-02-13T06:10:01.953Z,5.50
2018-02-13T06:12:29.412Z,6.87
2018-02-13T06:14:56.866Z,4.97
2018-02-13T06:17:24.316Z,6.47
2018-02-13T06:19:51.770Z,5.80
2018-02-13T06:22:19.225Z,8.03
2018-02-13T06:24:46.680Z,7.00
2018-02-13T06:27:14.145Z,5.97
2018-02-13T06:29:41.597Z,5.10
2018-02-13T06:32:09.056Z,7.13
2018-02-13T06:34:36.509Z,8.67
2018-02-13T06:37:04.053Z,4.80
2018-02-13T06:39:31.509Z,5.70
2018-02-13T06:41:58.973Z,4.90
2018-02-13T06:44:26.425Z,5.17
2018-02-13T06:46:53.890Z,6.43
2018-02-13T06:49:21.344Z,6.40
2018-02-13T06:51:48.801Z,3.93
2018-02-13T06:54:16.261Z,5.53
2018-02-13T06:56:43.714Z,4.30
2018-02-13T06:59:11.190Z,5.30
2018-02-13T07:01:38.624Z,5.10
2018-02-13T07:04:06.853Z,10.27
2018-02-13T07:06:34.305Z,11.13
2018-02-13T07:09:01.764Z,8.00
2018-02-13T07:11:29.217Z,7.53
2018-02-13T07:13:57.437Z,8.00
2018-02-13T07:16:24.893Z,7.77
2018-02-13T07:18:52.360Z,7.70
2018-02-13T07:21:19.816Z,6.90
2018-02-13T07:23:47.277Z,9.33
2018-02-13T07:26:14.720Z,6.30
2018-02-13T07:28:42.189Z,5.63
2018-02-13T07:31:09.637Z,5.67
2018-02-13T07:33:37.093Z,6.80
2018-02-13T07:36:04.545Z,6.20
2018-02-13T07:38:32.005Z,5.67
2018-02-13T07:40:59.455Z,6.00
2018-02-13T07:43:26.917Z,7.27
2018-02-13T07:45:55.125Z,6.27
2018-02-13T07:48:22.573Z,9.03
2018-02-13T07:50:50.017Z,6.80
2018-02-13T07:53:17.472Z,6.70
2018-02-13T07:55:44.937Z,5.73
2018-02-13T07:58:12.393Z,4.63
2018-02-13T08:00:39.844Z,5.40
2018-02-13T08:03:07.301Z,4.70
2018-02-13T08:05:34.758Z,5.70
2018-02-13T08:08:02.211Z,5.70
2018-02-13T08:10:29.652Z,7.70
2018-02-13T08:12:57.093Z,4.73
2018-02-13T08:15:24.565Z,4.63
2018-02-13T08:17:52.009Z,5.57
2018-02-13T08:20:19.466Z,6.40
2018-02-13T08:22:46.910Z,7.23
2018-02-13T08:25:14.365Z,4.70
2018-02-13T08:27:41.841Z,6.93
2018-02-13T08:30:09.300Z,5.53
2018-02-13T08:32:36.754Z,7.90
2018-02-13T08:35:04.211Z,5.00
2018-02-13T08:37:31.654Z,6.37
2018-02-13T08:39:59.112Z,6.30
2018-02-13T08:42:26.566Z,7.30
2018-02-13T08:44:54.016Z,6.10
2018-02-13T08:47:21.464Z,5.17
2018-02-13T08:49:48.915Z,5.80
2018-02-13T08:52:16.368Z,11.73
2018-02-13T08:54:44.601Z,10.20
2018-02-13T08:57:14.207Z,7.27
2018-02-13T08:59:41.645Z,6.00
2018-02-13T09:02:09.096Z,7.87
2018-02-13T09:04:36.544Z,7.00
2018-02-13T09:07:03.984Z,4.87
2018-02-13T09:09:31.456Z,5.37
2018-02-13T09:11:58.905Z,4.80
2018-02-13T09:14:26.348Z,5.77
2018-02-13T09:16:53.808Z,4.23
2018-02-13T09:19:22.009Z,4.83
2018-02-13T09:21:49.460Z,6.03
2018-02-13T09:24:16.913Z,6.30
2018-02-13T09:26:44.377Z,5.37
2018-02-13T09:29:11.810Z,6.03
2018-02-13T09:31:39.257Z,6.63
2018-02-13T09:34:07.474Z,5.53
2018-02-13T09:36:34.997Z,7.30
2018-02-13T09:39:02.433Z,3.97
2018-02-13T09:41:30.672Z,10.20
2018-02-13T09:43:58.124Z,6.13
2018-02-13T09:46:25.577Z,4.00
2018-02-13T09:48:53.021Z,5.00
2018-02-13T09:51:20.477Z,5.10
2018-02-13T09:53:47.926Z,3.60
2018-02-13T09:56:15.385Z,5.90
2018-02-13T09:58:42.825Z,5.00
2018-02-13T10:01:10.281Z,4.70
2018-02-13T10:03:37.730Z,3.10
2018-02-13T10:06:06.728Z,3.43
2018-02-13T10:08:34.246Z,7.70
2018-02-13T10:11:01.687Z,4.67
2018-02-13T10:13:29.128Z,5.23
2018-02-13T10:15:56.608Z,12.93
2018-02-13T10:18:24.045Z,6.87
2018-02-13T10:20:51.493Z,6.43
2018-02-13T10:23:18.964Z,3.37
2018-02-13T10:25:46.420Z,3.20
2018-02-13T10:28:13.878Z,4.00
2018-02-13T10:30:41.325Z,2.70
2018-02-13T10:33:08.780Z,3.53
2018-02-13T10:35:36.220Z,4.70
2018-02-13T10:38:03.678Z,4.33
2018-02-13T10:40:31.112Z,2.63
2018-02-13T10:42:59.340Z,5.20
2018-02-13T10:45:26.797Z,5.67
2018-02-13T10:47:54.249Z,3.90
2018-02-13T10:50:22.460Z,3.67
2018-02-13T10:52:50.681Z,3.87
2018-02-13T10:55:18.139Z,1.80
2018-02-13T10:57:45.584Z,4.20
2018-02-13T11:00:13.041Z,2.60
2018-02-13T11:02:40.500Z,3.57
2018-02-13T11:05:07.940Z,3.90
2018-02-13T11:07:35.388Z,1.97
2018-02-13T11:10:03.604Z,6.77
2018-02-13T11:12:31.060Z,2.37
2018-02-13T11:14:58.513Z,2.60
2018-02-13T11:17:25.969Z,3.87
2018-02-13T11:19:53.420Z,2.80
2018-02-13T11:22:20.881Z,2.90
2018-02-13T11:24:48.322Z,3.27
2018-02-13T11:27:16.457Z,2.70
2018-02-13T11:29:44.677Z,5.60
2018-02-13T11:32:12.129Z,3.23
2018-02-13T11:34:39.580Z,4.93
2018-02-13T11:37:07.038Z,3.20
2018-02-13T11:39:34.497Z,3.93
2018-02-13T11:42:01.942Z,3.97
2018-02-13T11:44:29.428Z,3.20
2018-02-13T11:46:56.876Z,4.50
2018-02-13T11:49:24.330Z,6.30
2018-02-13T11:51:51.777Z,4.70
2018-02-13T11:54:19.234Z,4.80
2018-02-13T11:56:46.679Z,7.33
2018-02-13T11:59:14.133Z,3.53
2018-02-13T12:01:41.573Z,3.07
2018-02-13T12:04:09.788Z,6.50
2018-02-13T12:06:37.336Z,2.17
2018-02-13T12:09:04.781Z,2.40
2018-02-13T12:11:32.225Z,2.47
2018-02-13T12:14:00.442Z,2.70
2018-02-13T12:16:27.885Z,2.63
2018-02-13T12:18:55.340Z,1.83
2018-02-13T12:21:22.788Z,5.07
2018-02-13T12:23:50.232Z,3.90
2018-02-13T12:26:17.683Z,3.63
2018-02-13T12:28:45.900Z,2.70
2018-02-13T12:31:13.346Z,7.37
2018-02-13T12:33:40.793Z,3.03
2018-02-13T12:36:08.253Z,3.80
2018-02-13T12:38:35.708Z,2.60
2018-02-13T12:41:03.161Z,3.23
2018-02-13T12:43:30.608Z,9.40
2018-02-13T12:45:58.061Z,1.97
2018-02-13T12:48:25.537Z,1.90
2018-02-13T12:50:52.982Z,3.70
2018-02-13T12:53:20.432Z,2.30
2018-02-13T12:55:47.884Z,2.37
2018-02-13T12:58:15.333Z,4.10
2018-02-13T13:00:43.557Z,3.20
2018-02-13T13:03:11.000Z,3.20
2018-02-13T13:05:38.513Z,11.83
2018-02-13T13:08:05.932Z,4.80
2018-02-13T13:10:33.389Z,6.27
2018-02-13T13:13:00.828Z,2.97
2018-02-13T13:15:28.280Z,4.70
2018-02-13T13:17:55.743Z,2.70
2018-02-13T13:20:23.190Z,3.63
2018-02-13T13:22:50.632Z,3.83
2018-02-13T13:25:18.082Z,2.70
2018-02-13T13:27:45.525Z,2.37
2018-02-13T13:30:13.753Z,3.37
2018-02-13T13:32:41.205Z,4.33
2018-02-13T13:35:08.643Z,2.20
2018-02-13T13:37:36.104Z,2.93
2018-02-13T13:40:03.557Z,3.70
2018-02-13T13:42:31.013Z,3.50
2018-02-13T13:44:58.471Z,4.80
2018-02-13T13:47:25.956Z,4.30
2018-02-13T13:49:53.401Z,3.53
2018-02-13T13:52:20.853Z,4.10
2018-02-13T13:54:48.305Z,3.53
2018-02-13T13:57:16.433Z,2.90
2018-02-13T13:59:44.666Z,2.97
2018-02-13T14:02:12.104Z,8.83
2018-02-13T14:04:39.553Z,6.47
2018-02-13T14:07:07.001Z,5.47
2018-02-13T14:09:34.444Z,3.93
2018-02-13T14:12:02.672Z,6.20
2018-02-13T14:14:30.885Z,4.03
2018-02-13T14:16:59.668Z,3.40
2018-02-13T14:19:27.088Z,3.83
2018-02-13T14:21:54.546Z,4.83
2018-02-13T14:24:21.998Z,3.43
2018-02-13T14:26:50.222Z,4.63
2018-02-13T14:29:18.438Z,3.63
2018-02-13T14:31:45.888Z,2.67
2018-02-13T14:34:13.336Z,7.03
2018-02-13T14:36:40.793Z,4.83
2018-02-13T14:39:08.233Z,5.70
2018-02-13T14:41:35.713Z,4.70
2018-02-13T14:44:03.156Z,4.70
2018-02-13T14:46:30.601Z,4.00
2018-02-13T14:48:58.053Z,4.90
2018-02-13T14:51:26.260Z,4.20
2018-02-13T14:53:53.714Z,6.53
2018-02-13T14:56:21.164Z,5.10
2018-02-13T14:58:48.621Z,5.17
2018-02-13T15:01:16.069Z,4.40
2018-02-13T15:03:43.516Z,5.17
2018-02-13T15:06:10.965Z,5.10
2018-02-13T15:08:39.189Z,6.50
2018-02-13T15:11:06.628Z,5.77
2018-02-13T15:13:34.097Z,4.50
2018-02-13T15:16:01.532Z,6.20
2018-02-13T15:18:43.871Z,5.03
2018-02-13T15:21:11.313Z,6.30
2018-02-13T15:26:13.548Z,5.40
2018-02-13T15:28:41.764Z,5.43
2018-02-13T15:31:09.223Z,5.40
2018-02-13T15:33:36.669Z,4.77
2018-02-13T15:36:04.111Z,5.17
2018-02-13T15:38:31.565Z,6.80
2018-02-13T15:40:59.009Z,5.60
2018-02-13T15:43:27.224Z,5.03
2018-02-13T15:45:54.668Z,4.50
2018-02-13T15:48:22.120Z,4.63
2018-02-13T15:50:49.565Z,3.90
2018-02-13T15:53:17.018Z,6.37
2018-02-13T15:55:44.465Z,8.60
2018-02-13T15:58:12.676Z,5.23
2018-02-13T16:00:40.123Z,5.93
2018-02-13T16:03:07.568Z,6.90
2018-02-13T16:05:35.039Z,4.57
2018-02-13T16:08:02.488Z,6.10
2018-02-13T16:10:29.933Z,5.97
2018-02-13T16:12:57.378Z,6.40
2018-02-13T16:15:25.588Z,6.03
2018-02-13T16:17:53.049Z,5.93
2018-02-13T16:20:20.492Z,8.03
2018-02-13T16:22:47.951Z,10.10
2018-02-13T16:25:15.404Z,6.40
2018-02-13T16:27:42.848Z,7.80
2018-02-13T16:30:10.301Z,7.10
2018-02-13T16:32:37.749Z,6.13
2018-02-13T16:35:05.204Z,5.27
2018-02-13T16:37:33.419Z,8.77
2018-02-13T16:40:00.868Z,4.77
2018-02-13T16:42:28.317Z,7.17
2018-02-13T16:44:55.774Z,4.80
2018-02-13T16:47:23.216Z,4.07
2018-02-13T16:49:50.673Z,12.00
2018-02-13T16:52:18.129Z,20.07
2018-02-13T16:54:45.581Z,25.67
2018-02-13T16:57:13.044Z,15.63
2018-02-13T16:59:40.497Z,7.90
2018-02-13T17:02:07.952Z,5.93
2018-02-13T17:04:35.396Z,5.90
2018-02-13T17:07:03.623Z,7.90
2018-02-13T17:09:31.068Z,7.70
2018-02-13T17:11:58.525Z,7.23
2018-02-13T17:14:26.013Z,6.23
2018-02-13T17:16:53.448Z,5.73
2018-02-13T17:19:20.897Z,10.23
2018-02-13T17:21:48.349Z,8.63
2018-02-13T17:24:15.801Z,10.90
2018-02-13T17:26:43.257Z,6.87
2018-02-13T17:29:10.705Z,8.20
2018-02-13T17:31:38.171Z,7.20
2018-02-13T17:34:05.625Z,7.03
2018-02-13T17:36:33.077Z,7.83
2018-02-13T17:39:00.529Z,9.13
2018-02-13T17:41:27.985Z,5.97
2018-02-13T17:43:55.428Z,8.27
2018-02-13T17:46:22.885Z,8.83
2018-02-13T17:48:50.341Z,11.30
2018-02-13T17:51:17.792Z,8.57
2018-02-13T17:53:46.002Z,7.63
2018-02-13T17:56:13.481Z,7.77
2018-02-13T17:58:40.927Z,7.47
2018-02-13T18:01:08.367Z,8.40
2018-02-13T18:03:35.825Z,7.90
2018-02-13T18:06:03.278Z,9.17
2018-02-13T18:08:30.731Z,8.17
2018-02-13T18:10:58.370Z,9.67
2018-02-13T18:13:25.824Z,10.30
2018-02-13T18:15:53.267Z,7.10
2018-02-13T18:18:20.724Z,12.53
2018-02-13T18:20:48.940Z,14.73
2018-02-13T18:23:16.396Z,17.70
2018-02-13T18:25:43.853Z,13.40
2018-02-13T18:28:11.309Z,10.23
2018-02-13T18:30:38.766Z,7.70
2018-02-13T18:33:06.213Z,8.53
2018-02-13T18:35:33.664Z,6.30
2018-02-13T18:38:01.122Z,9.00
2018-02-13T18:40:28.564Z,8.90
2018-02-13T18:42:56.021Z,12.70
2018-02-13T18:45:23.475Z,12.10
2018-02-13T18:47:51.698Z,11.20
2018-02-13T18:50:19.148Z,8.53
2018-02-13T18:55:14.049Z,8.37
2018-02-13T18:57:41.499Z,10.67
2018-02-13T19:00:08.956Z,11.40
2018-02-13T19:02:36.417Z,12.30
2018-02-13T19:05:03.881Z,13.13
2018-02-13T19:07:31.333Z,13.17
2018-02-13T19:09:58.784Z,13.83
2018-02-13T19:12:26.254Z,15.30
2018-02-13T19:14:53.705Z,14.60
2018-02-13T19:17:21.213Z,16.47
2018-02-13T19:19:48.632Z,12.60
2018-02-13T19:22:16.089Z,12.77
2018-02-13T19:24:43.548Z,12.90
2018-02-13T19:27:11.004Z,16.07
2018-02-13T19:29:38.460Z,15.57
2018-02-13T19:32:05.920Z,14.00
2018-02-13T19:34:33.376Z,15.37
2018-02-13T19:37:00.832Z,12.03
2018-02-13T19:39:28.296Z,12.20
2018-02-13T19:41:55.753Z,12.00
2018-02-13T19:44:23.209Z,21.90
2018-02-13T19:46:50.661Z,12.23
2018-02-13T19:49:18.113Z,16.20
2018-02-13T19:51:45.569Z,18.30
2018-02-13T19:54:13.033Z,17.97
2018-02-13T19:56:40.491Z,14.30
2018-02-13T19:59:07.948Z,14.20
2018-02-13T20:01:35.396Z,12.63
2018-02-13T20:04:02.881Z,12.13
2018-02-13T20:06:30.326Z,11.17
2018-02-13T20:08:57.791Z,11.53
2018-02-13T20:11:25.232Z,10.93
2018-02-13T20:13:52.680Z,9.77
2018-02-13T20:16:20.142Z,12.63
2018-02-13T20:18:48.365Z,11.40
2018-02-13T20:21:15.820Z,11.10
2018-02-13T20:23:43.280Z,12.13
2018-02-13T20:26:10.753Z,14.07
2018-02-13T20:28:38.194Z,11.33
2018-02-13T20:31:05.648Z,10.50
2018-02-13T20:33:33.102Z,10.00
2018-02-13T20:36:01.328Z,15.73
2018-02-13T20:38:28.814Z,11.07
2018-02-13T20:40:56.273Z,11.80
2018-02-13T20:43:24.501Z,13.43
2018-02-13T20:45:51.953Z,12.43
2018-02-13T20:48:19.416Z,12.47
2018-02-13T20:50:47.648Z,12.53
2018-02-13T20:53:15.867Z,12.10
2018-02-13T20:55:43.320Z,12.17
2018-02-13T20:58:10.773Z,12.90
2018-02-13T21:00:38.228Z,12.63
2018-02-13T21:03:05.685Z,12.33
2018-02-13T21:05:33.140Z,13.90
2018-02-13T21:08:00.597Z,17.40
2018-02-13T21:10:28.055Z,16.13
2018-02-13T21:12:55.509Z,19.37
2018-02-13T21:15:22.965Z,16.00
2018-02-13T21:17:50.416Z,21.43
2018-02-13T21:20:17.998Z,21.53
2018-02-13T21:22:45.462Z,17.23
2018-02-13T21:25:12.917Z,24.40
2018-02-13T21:27:40.381Z,18.83
2018-02-13T21:30:07.831Z,18.20
2018-02-13T21:32:35.312Z,31.03
2018-02-13T21:35:02.761Z,36.43
2018-02-13T21:37:30.228Z,20.63
2018-02-13T21:39:57.673Z,21.93
2018-02-13T21:42:25.132Z,30.97
2018-02-13T21:44:52.593Z,30.63
2018-02-13T21:47:20.057Z,22.97
2018-02-13T21:49:48.273Z,23.80
2018-02-13T21:52:15.733Z,21.37
2018-02-13T21:54:43.181Z,22.10
2018-02-13T21:57:10.679Z,19.67
2018-02-13T21:59:38.128Z,21.50
2018-02-13T22:02:05.590Z,18.30
2018-02-13T22:04:33.060Z,18.47
2018-02-13T22:07:00.552Z,16.07
2018-02-13T22:09:28.000Z,14.93
2018-02-13T22:11:56.237Z,16.57
2018-02-13T22:14:23.709Z,16.23
2018-02-13T22:16:51.193Z,15.57
2018-02-13T22:19:18.644Z,13.90
2018-02-13T22:21:46.869Z,12.80
2018-02-13T22:24:14.361Z,11.97
2018-02-13T22:26:41.812Z,10.40
2018-02-13T22:29:09.272Z,12.80
2018-02-13T22:31:36.724Z,13.20
2018-02-13T22:34:04.185Z,12.13
2018-02-13T22:36:31.636Z,11.67
2018-02-13T22:38:59.096Z,13.57
2018-02-13T22:41:26.540Z,10.50
2018-02-13T22:43:54.010Z,10.93
2018-02-13T22:46:21.473Z,10.57
2018-02-13T22:48:49.705Z,10.23
2018-02-13T22:51:17.169Z,12.17
2018-02-13T22:53:44.628Z,14.83
2018-02-13T22:56:12.089Z,12.33
2018-02-13T22:58:39.553Z,13.13
2018-02-13T23:01:07.013Z,12.13
2018-02-13T23:03:34.488Z,11.17
2018-02-13T23:06:01.940Z,15.73
2018-02-13T23:08:29.410Z,10.20
2018-02-13T23:10:57.621Z,10.90
2018-02-13T23:13:25.093Z,11.23
2018-02-13T23:15:52.549Z,15.63
2018-02-13T23:18:20.776Z,11.87
2018-02-13T23:20:49.001Z,14.80
2018-02-13T23:23:16.488Z,14.73
2018-02-13T23:25:43.947Z,16.30
2018-02-13T23:28:11.405Z,15.03
2018-02-13T23:30:38.868Z,16.63
2018-02-13T23:33:07.095Z,13.97
2018-02-13T23:35:34.561Z,13.00
2018-02-13T23:38:02.029Z,12.73
2018-02-13T23:40:29.496Z,13.93
2018-02-13T23:42:56.969Z,12.93
2018-02-13T23:45:25.200Z,12.20
2018-02-13T23:47:52.653Z,12.63
2018-02-13T23:50:20.121Z,12.50
2018-02-13T23:52:47.577Z,13.20
2018-02-13T23:55:15.049Z,12.83
2018-02-13T23:57:42.513Z,12.03
